createdAt,value
2022-11-16T00:00:11.887Z,12.10
2022-11-16T00:02:38.034Z,12.10
2022-11-16T00:05:04.170Z,12.10
2022-11-16T00:07:30.340Z,12.14
2022-11-16T00:09:56.441Z,12.09
2022-11-16T00:12:22.560Z,12.00
2022-11-16T00:14:48.773Z,12.06
2022-11-16T00:17:14.920Z,12.04
2022-11-16T00:19:41.021Z,12.00
2022-11-16T00:22:07.130Z,12.03
2022-11-16T00:24:33.224Z,12.02
2022-11-16T00:26:59.345Z,12.02
2022-11-16T00:29:25.456Z,12.04
2022-11-16T00:31:51.543Z,12.02
2022-11-16T00:34:17.654Z,11.92
2022-11-16T00:36:43.766Z,11.96
2022-11-16T00:39:09.861Z,11.84
2022-11-16T00:41:35.943Z,11.91
2022-11-16T00:44:02.039Z,11.91
2022-11-16T00:46:28.157Z,11.97
2022-11-16T00:48:54.266Z,11.92
2022-11-16T00:51:20.386Z,11.89
2022-11-16T00:53:46.470Z,11.88
2022-11-16T00:56:12.577Z,11.87
2022-11-16T00:58:38.711Z,11.88
2022-11-16T01:01:04.847Z,11.85
2022-11-16T01:03:31.001Z,11.72
2022-11-16T01:05:57.113Z,11.82
2022-11-16T01:08:23.197Z,11.77
2022-11-16T01:10:49.290Z,11.79
2022-11-16T01:13:15.396Z,11.66
2022-11-16T01:15:41.582Z,11.69
2022-11-16T01:18:07.659Z,11.72
2022-11-16T01:20:33.763Z,11.70
2022-11-16T01:22:59.855Z,11.67
2022-11-16T01:25:25.949Z,11.70
2022-11-16T01:27:52.060Z,11.67
2022-11-16T01:30:18.157Z,11.61
2022-11-16T01:32:44.255Z,11.52
2022-11-16T01:35:10.382Z,11.56
2022-11-16T01:37:38.099Z,11.56
2022-11-16T01:40:04.203Z,11.58
2022-11-16T01:42:30.307Z,11.61
2022-11-16T01:44:56.398Z,11.63
2022-11-16T01:47:22.487Z,11.64
2022-11-16T01:49:48.914Z,11.56
2022-11-16T01:52:15.014Z,11.54
2022-11-16T01:54:41.098Z,11.51
2022-11-16T01:57:07.208Z,11.56
2022-11-16T01:59:33.305Z,11.54
2022-11-16T02:01:59.399Z,11.55
2022-11-16T02:04:25.525Z,11.54
2022-11-16T02:06:51.649Z,11.49
2022-11-16T02:09:17.779Z,11.56
2022-11-16T02:11:43.915Z,11.48
2022-11-16T02:14:10.005Z,11.44
2022-11-16T02:16:36.093Z,11.47
2022-11-16T02:19:02.848Z,11.46
2022-11-16T02:21:28.949Z,11.44
2022-11-16T02:23:55.040Z,11.39
2022-11-16T02:26:21.148Z,11.42
2022-11-16T02:28:47.246Z,11.42
2022-11-16T02:31:13.349Z,11.42
2022-11-16T02:33:39.477Z,11.43
2022-11-16T02:36:05.569Z,11.45
2022-11-16T02:38:31.952Z,11.43
2022-11-16T02:40:58.280Z,11.38
2022-11-16T02:43:24.377Z,11.42
2022-11-16T02:45:50.491Z,11.38
2022-11-16T02:48:16.597Z,11.37
2022-11-16T02:50:42.690Z,11.34
2022-11-16T02:53:08.793Z,11.35
2022-11-16T02:55:34.891Z,11.39
2022-11-16T02:58:00.979Z,11.40
2022-11-16T03:00:27.077Z,11.43
2022-11-16T03:02:53.232Z,11.43
2022-11-16T03:05:19.321Z,11.41
2022-11-16T03:07:45.411Z,11.42
2022-11-16T03:10:11.518Z,11.43
2022-11-16T03:12:37.632Z,11.44
2022-11-16T03:15:03.747Z,11.38
2022-11-16T03:17:29.873Z,11.41
2022-11-16T03:19:55.959Z,11.35
2022-11-16T03:22:22.060Z,11.37
2022-11-16T03:24:48.160Z,11.39
2022-11-16T03:27:14.274Z,11.40
2022-11-16T03:29:40.362Z,11.34
2022-11-16T03:32:06.473Z,11.40
2022-11-16T03:34:32.570Z,11.41
2022-11-16T03:36:58.664Z,11.38
2022-11-16T03:39:24.793Z,11.39
2022-11-16T03:41:50.884Z,11.37
2022-11-16T03:44:16.985Z,11.39
2022-11-16T03:46:43.081Z,11.39
2022-11-16T03:49:09.179Z,11.41
2022-11-16T03:51:35.277Z,11.39
2022-11-16T03:54:01.658Z,11.40
2022-11-16T03:56:27.741Z,11.45
2022-11-16T03:58:53.820Z,11.45
2022-11-16T04:01:20.000Z,11.44
2022-11-16T04:03:46.126Z,11.45
2022-11-16T04:06:12.381Z,11.45
2022-11-16T04:08:38.498Z,11.45
2022-11-16T04:11:04.583Z,11.46
2022-11-16T04:13:30.676Z,11.47
2022-11-16T04:15:56.810Z,11.44
2022-11-16T04:18:22.896Z,11.36
2022-11-16T04:20:49.003Z,11.36
2022-11-16T04:23:15.125Z,11.37
2022-11-16T04:25:46.978Z,11.33
2022-11-16T04:28:13.065Z,11.34
2022-11-16T04:30:39.208Z,11.29
2022-11-16T04:33:05.307Z,11.30
2022-11-16T04:35:31.413Z,11.37
2022-11-16T04:37:57.542Z,11.37
2022-11-16T04:40:23.640Z,11.38
2022-11-16T04:42:49.736Z,11.35
2022-11-16T04:45:15.845Z,11.39
2022-11-16T04:47:41.962Z,11.40
2022-11-16T04:50:08.043Z,11.42
2022-11-16T04:52:34.161Z,11.38
2022-11-16T04:55:00.259Z,11.32
2022-11-16T04:57:26.344Z,11.35
2022-11-16T04:59:52.522Z,11.38
2022-11-16T05:02:18.614Z,11.37
2022-11-16T05:04:44.720Z,11.35
2022-11-16T05:07:11.017Z,11.36
2022-11-16T05:09:37.291Z,11.36
2022-11-16T05:12:03.373Z,11.34
2022-11-16T05:14:29.505Z,11.32
2022-11-16T05:16:55.591Z,11.34
2022-11-16T05:19:21.682Z,11.29
2022-11-16T05:21:47.806Z,11.28
2022-11-16T05:24:13.912Z,11.29
2022-11-16T05:26:40.008Z,11.30
2022-11-16T05:29:06.383Z,11.27
2022-11-16T05:31:36.347Z,11.31
2022-11-16T05:34:06.336Z,11.26
2022-11-16T05:36:32.450Z,11.32
2022-11-16T05:38:58.541Z,11.30
2022-11-16T05:41:24.628Z,11.28
2022-11-16T05:43:50.739Z,11.27
2022-11-16T05:46:16.831Z,11.24
2022-11-16T05:48:42.936Z,11.27
2022-11-16T05:51:09.060Z,11.22
2022-11-16T05:53:35.140Z,11.17
2022-11-16T05:56:01.300Z,11.09
2022-11-16T05:58:27.460Z,11.06
2022-11-16T06:00:53.569Z,11.08
2022-11-16T06:03:19.718Z,11.07
2022-11-16T06:05:45.916Z,11.14
2022-11-16T06:08:12.000Z,11.14
2022-11-16T06:10:38.099Z,11.11
2022-11-16T06:13:04.250Z,11.09
2022-11-16T06:15:30.372Z,11.09
2022-11-16T06:17:56.548Z,11.03
2022-11-16T06:20:22.753Z,11.00
2022-11-16T06:22:48.879Z,10.91
2022-11-16T06:25:15.015Z,10.90
2022-11-16T06:27:41.211Z,10.97
2022-11-16T06:30:07.312Z,11.04
2022-11-16T06:32:33.401Z,10.97
2022-11-16T06:34:59.540Z,10.93
2022-11-16T06:37:25.643Z,10.90
2022-11-16T06:39:51.756Z,10.94
2022-11-16T06:42:17.929Z,10.93
2022-11-16T06:44:44.036Z,10.82
2022-11-16T06:47:10.143Z,10.89
2022-11-16T06:49:36.263Z,10.81
2022-11-16T06:52:02.367Z,10.75
2022-11-16T06:54:28.457Z,10.80
2022-11-16T06:56:54.560Z,10.80
2022-11-16T06:59:20.662Z,10.75
2022-11-16T07:01:46.786Z,10.73
2022-11-16T07:04:13.123Z,10.78
2022-11-16T07:06:39.245Z,10.79
2022-11-16T07:09:05.331Z,10.79
2022-11-16T07:11:31.460Z,10.74
2022-11-16T07:13:57.535Z,10.78
2022-11-16T07:16:23.716Z,10.69
2022-11-16T07:18:49.831Z,10.67
2022-11-16T07:21:16.054Z,10.63
2022-11-16T07:23:42.191Z,10.59
2022-11-16T07:26:09.129Z,10.96
2022-11-16T07:28:35.611Z,10.53
2022-11-16T07:31:01.996Z,10.44
2022-11-16T07:33:28.103Z,10.42
2022-11-16T07:35:54.202Z,10.42
2022-11-16T07:38:20.287Z,10.35
2022-11-16T07:40:46.402Z,10.38
2022-11-16T07:43:12.541Z,10.31
2022-11-16T07:45:38.635Z,10.29
2022-11-16T07:48:04.817Z,10.25
2022-11-16T07:50:30.907Z,10.28
2022-11-16T07:52:57.006Z,10.21
2022-11-16T07:55:23.185Z,10.23
2022-11-16T07:57:53.270Z,10.18
2022-11-16T08:00:19.784Z,10.15
2022-11-16T08:02:45.989Z,10.13
2022-11-16T08:05:12.078Z,10.08
2022-11-16T08:07:38.243Z,10.03
2022-11-16T08:10:05.009Z,10.00
2022-11-16T08:12:32.335Z,10.06
2022-11-16T08:14:58.460Z,9.98
2022-11-16T08:17:24.585Z,10.06
2022-11-16T08:19:50.687Z,10.12
2022-11-16T08:22:16.782Z,10.17
2022-11-16T08:24:42.904Z,10.16
2022-11-16T08:27:09.006Z,10.14
2022-11-16T08:29:35.110Z,10.11
2022-11-16T08:32:01.242Z,10.20
2022-11-16T08:34:27.340Z,10.16
2022-11-16T08:36:53.425Z,10.13
2022-11-16T08:39:19.546Z,10.17
2022-11-16T08:41:45.648Z,10.17
2022-11-16T08:44:11.762Z,10.22
2022-11-16T08:46:37.867Z,10.18
2022-11-16T08:49:03.969Z,10.32
2022-11-16T08:51:30.074Z,10.32
2022-11-16T08:53:56.271Z,10.38
2022-11-16T08:56:22.393Z,10.43
2022-11-16T08:58:52.453Z,10.44
2022-11-16T09:01:21.555Z,10.47
2022-11-16T09:03:47.742Z,10.44
2022-11-16T09:06:13.842Z,10.44
2022-11-16T09:08:39.962Z,10.49
2022-11-16T09:11:06.059Z,10.56
2022-11-16T09:13:32.160Z,10.47
2022-11-16T09:15:58.260Z,10.43
2022-11-16T09:18:24.352Z,10.38
2022-11-16T09:20:50.439Z,10.47
2022-11-16T09:23:20.921Z,10.44
2022-11-16T09:25:51.082Z,10.48
2022-11-16T09:28:17.204Z,10.56
2022-11-16T09:30:43.305Z,10.48
2022-11-16T09:33:09.409Z,10.49
2022-11-16T09:35:35.508Z,10.51
2022-11-16T09:38:01.607Z,10.57
2022-11-16T09:40:27.722Z,10.62
2022-11-16T09:42:53.969Z,10.53
2022-11-16T09:45:20.086Z,10.50
2022-11-16T09:47:46.197Z,10.57
2022-11-16T09:50:12.471Z,10.56
2022-11-16T09:52:38.591Z,10.63
2022-11-16T09:55:04.712Z,10.70
2022-11-16T09:57:30.836Z,10.73
2022-11-16T09:59:56.952Z,10.78
2022-11-16T10:02:23.061Z,10.81
2022-11-16T10:04:52.513Z,10.77
2022-11-16T10:07:23.012Z,10.76
2022-11-16T10:09:49.135Z,10.81
2022-11-16T10:12:16.252Z,10.74
2022-11-16T10:14:42.425Z,10.79
2022-11-16T10:17:08.679Z,10.89
2022-11-16T10:19:40.294Z,10.86
2022-11-16T10:22:06.382Z,10.97
2022-11-16T10:24:32.475Z,10.86
2022-11-16T10:26:58.623Z,10.94
2022-11-16T10:29:24.768Z,11.00
2022-11-16T10:31:50.872Z,11.10
2022-11-16T10:34:19.204Z,11.27
2022-11-16T10:36:46.397Z,11.22
2022-11-16T10:39:12.510Z,11.26
2022-11-16T10:41:38.626Z,11.33
2022-11-16T10:44:04.748Z,11.31
2022-11-16T10:46:30.867Z,11.38
2022-11-16T10:48:56.993Z,11.45
2022-11-16T10:51:24.181Z,11.35
2022-11-16T10:53:50.341Z,11.32
2022-11-16T10:56:18.616Z,11.29
2022-11-16T10:58:44.713Z,11.28
2022-11-16T11:01:10.877Z,11.34
2022-11-16T11:03:37.203Z,11.32
2022-11-16T11:06:03.460Z,11.29
2022-11-16T11:08:29.574Z,11.29
2022-11-16T11:10:55.704Z,11.35
2022-11-16T11:13:21.790Z,11.34
2022-11-16T11:15:47.890Z,11.27
2022-11-16T11:18:14.016Z,11.34
2022-11-16T11:20:44.537Z,11.41
2022-11-16T11:23:11.219Z,11.49
2022-11-16T11:25:37.333Z,11.46
2022-11-16T11:28:03.433Z,11.46
2022-11-16T11:30:29.546Z,11.46
2022-11-16T11:32:55.652Z,11.41
2022-11-16T11:35:21.735Z,11.48
2022-11-16T11:37:47.868Z,11.44
2022-11-16T11:40:14.409Z,11.42
2022-11-16T11:42:40.514Z,11.45
2022-11-16T11:45:06.621Z,11.44
2022-11-16T11:47:56.864Z,11.42
2022-11-16T11:50:20.395Z,11.43
2022-11-16T11:52:46.553Z,11.45
2022-11-16T11:55:12.721Z,11.51
2022-11-16T11:57:47.793Z,11.42
2022-11-16T12:00:13.958Z,11.46
2022-11-16T12:02:40.268Z,11.44
2022-11-16T12:05:06.458Z,11.53
2022-11-16T12:07:32.686Z,11.63
2022-11-16T12:09:58.881Z,11.89
2022-11-16T12:12:25.000Z,12.02
2022-11-16T12:14:51.120Z,12.02
2022-11-16T12:17:17.212Z,12.04
2022-11-16T12:19:43.313Z,11.97
2022-11-16T12:22:09.432Z,12.04
2022-11-16T12:24:35.531Z,12.04
2022-11-16T12:27:01.642Z,11.94
2022-11-16T12:29:28.064Z,11.92
2022-11-16T12:31:54.150Z,12.01
2022-11-16T12:34:20.232Z,12.06
2022-11-16T12:36:46.335Z,12.09
2022-11-16T12:39:12.427Z,11.97
2022-11-16T12:41:38.508Z,12.05
2022-11-16T12:44:04.622Z,12.17
2022-11-16T12:46:30.732Z,12.17
2022-11-16T12:48:56.873Z,12.13
2022-11-16T12:51:25.284Z,12.11
2022-11-16T12:53:54.925Z,12.11
2022-11-16T12:56:21.016Z,11.97
2022-11-16T12:58:47.283Z,11.92
2022-11-16T13:01:13.454Z,11.90
2022-11-16T13:03:39.602Z,11.90
2022-11-16T13:06:05.721Z,11.98
2022-11-16T13:08:31.867Z,12.03
2022-11-16T13:10:57.975Z,11.98
2022-11-16T13:13:39.361Z,12.04
2022-11-16T13:16:05.488Z,12.07
2022-11-16T13:18:31.613Z,12.04
2022-11-16T13:20:57.706Z,11.99
2022-11-16T13:23:23.810Z,12.07
2022-11-16T13:25:49.935Z,12.07
2022-11-16T13:28:16.032Z,12.11
2022-11-16T13:30:42.125Z,12.07
2022-11-16T13:33:08.255Z,12.13
2022-11-16T13:35:34.341Z,12.14
2022-11-16T13:38:00.433Z,12.14
2022-11-16T13:40:26.548Z,12.15
2022-11-16T13:42:52.644Z,12.20
2022-11-16T13:45:18.733Z,12.15
2022-11-16T13:47:44.839Z,12.18
2022-11-16T13:50:11.085Z,12.09
2022-11-16T13:53:19.601Z,12.08
2022-11-16T13:55:23.433Z,11.98
2022-11-16T13:57:49.549Z,11.88
2022-11-16T14:00:15.659Z,11.88
2022-11-16T14:02:41.779Z,11.83
2022-11-16T14:05:07.886Z,11.86
2022-11-16T14:07:34.043Z,11.88
2022-11-16T14:10:00.211Z,11.90
2022-11-16T14:12:28.747Z,11.93
2022-11-16T14:14:57.218Z,11.92
2022-11-16T14:17:27.002Z,11.94
2022-11-16T14:19:53.128Z,11.92
2022-11-16T14:22:19.246Z,11.94
2022-11-16T14:24:45.387Z,12.03
2022-11-16T14:27:11.506Z,12.03
2022-11-16T14:29:37.692Z,12.10
2022-11-16T14:32:03.984Z,12.12
2022-11-16T14:34:33.156Z,12.11
2022-11-16T14:36:59.292Z,12.11
2022-11-16T14:39:25.522Z,12.13
2022-11-16T14:41:51.656Z,12.17
2022-11-16T14:44:17.767Z,12.14
2022-11-16T14:46:43.934Z,12.17
2022-11-16T14:49:10.059Z,12.19
2022-11-16T14:51:36.158Z,12.16
2022-11-16T14:54:02.271Z,12.20
2022-11-16T14:56:28.358Z,12.22
2022-11-16T14:58:54.442Z,12.34
2022-11-16T15:01:20.574Z,12.34
2022-11-16T15:03:46.737Z,12.30
2022-11-16T15:06:12.894Z,12.19
2022-11-16T15:08:39.007Z,12.08
2022-11-16T15:11:05.096Z,12.09
2022-11-16T15:13:31.298Z,12.00
2022-11-16T15:15:57.486Z,11.96
2022-11-16T15:18:23.585Z,11.82
2022-11-16T15:20:49.704Z,11.76
2022-11-16T15:23:15.825Z,11.66
2022-11-16T15:25:41.927Z,11.64
2022-11-16T15:28:08.031Z,11.63
2022-11-16T15:30:34.154Z,11.67
2022-11-16T15:33:00.253Z,11.67
2022-11-16T15:35:26.350Z,11.65
2022-11-16T15:37:52.474Z,11.61
2022-11-16T15:40:18.579Z,11.62
2022-11-16T15:42:44.681Z,11.61
2022-11-16T15:45:15.615Z,11.59
2022-11-16T15:47:41.990Z,11.61
2022-11-16T15:50:08.083Z,11.57
2022-11-16T15:52:34.419Z,11.54
2022-11-16T15:55:00.500Z,11.58
2022-11-16T15:57:26.603Z,11.56
2022-11-16T15:59:52.770Z,11.49
2022-11-16T16:02:18.942Z,11.35
2022-11-16T16:04:45.082Z,11.38
2022-11-16T16:07:11.209Z,11.35
2022-11-16T16:09:37.306Z,11.29
2022-11-16T16:12:03.400Z,11.29
2022-11-16T16:14:29.554Z,11.25
2022-11-16T16:16:55.656Z,11.30
2022-11-16T16:19:21.749Z,11.31
2022-11-16T16:21:47.950Z,11.33
2022-11-16T16:24:14.087Z,11.34
2022-11-16T16:26:40.197Z,11.35
2022-11-16T16:29:06.315Z,11.25
2022-11-16T16:31:32.423Z,11.22
2022-11-16T16:33:58.563Z,11.16
2022-11-16T16:36:24.674Z,11.12
2022-11-16T16:38:50.772Z,11.07
2022-11-16T16:41:22.661Z,10.99
2022-11-16T16:43:50.756Z,10.93
2022-11-16T16:46:16.862Z,10.93
2022-11-16T16:48:44.772Z,10.84
2022-11-16T16:51:11.064Z,10.87
2022-11-16T16:53:37.274Z,10.95
2022-11-16T16:56:03.516Z,10.90
2022-11-16T16:58:29.637Z,10.92
2022-11-16T17:01:01.165Z,10.97
2022-11-16T17:03:27.661Z,10.91
2022-11-16T17:05:53.767Z,10.93
2022-11-16T17:08:19.856Z,10.95
2022-11-16T17:10:45.943Z,10.95
2022-11-16T17:13:12.065Z,10.96
2022-11-16T17:15:38.182Z,10.95
2022-11-16T17:18:04.283Z,10.96
2022-11-16T17:20:30.392Z,10.96
2022-11-16T17:22:56.488Z,10.91
2022-11-16T17:25:22.603Z,10.93
2022-11-16T17:27:48.724Z,10.98
2022-11-16T17:30:14.821Z,10.99
2022-11-16T17:32:40.924Z,10.97
2022-11-16T17:35:07.028Z,10.97
2022-11-16T17:37:33.152Z,11.04
2022-11-16T17:39:59.263Z,10.98
2022-11-16T17:42:25.398Z,10.97
2022-11-16T17:44:51.485Z,10.94
2022-11-16T17:47:17.607Z,10.92
2022-11-16T17:49:44.256Z,10.82
2022-11-16T17:52:10.339Z,10.76
2022-11-16T17:54:36.441Z,10.74
2022-11-16T17:57:02.568Z,10.63
2022-11-16T17:59:29.987Z,10.64
2022-11-16T18:01:56.296Z,10.58
2022-11-16T18:04:22.394Z,10.56
2022-11-16T18:06:48.533Z,10.49
2022-11-16T18:09:14.633Z,10.45
2022-11-16T18:11:40.748Z,10.38
2022-11-16T18:14:06.857Z,10.38
2022-11-16T18:16:32.954Z,10.29
2022-11-16T18:18:59.093Z,10.29
2022-11-16T18:21:25.201Z,10.24
2022-11-16T18:23:51.295Z,10.28
2022-11-16T18:26:17.435Z,10.19
2022-11-16T18:28:43.538Z,10.03
2022-11-16T18:31:09.679Z,10.03
2022-11-16T18:33:36.120Z,9.95
2022-11-16T18:36:02.583Z,9.97
2022-11-16T18:38:28.685Z,10.01
2022-11-16T18:40:54.816Z,9.91
2022-11-16T18:43:20.930Z,9.87
2022-11-16T18:45:47.033Z,9.78
2022-11-16T18:48:13.157Z,9.87
2022-11-16T18:50:39.259Z,9.86
2022-11-16T18:53:05.370Z,9.65
2022-11-16T18:55:31.495Z,9.70
2022-11-16T18:57:57.603Z,9.69
2022-11-16T19:00:23.704Z,9.71
2022-11-16T19:02:49.843Z,9.62
2022-11-16T19:05:15.985Z,9.66
2022-11-16T19:07:42.068Z,9.57
2022-11-16T19:10:08.354Z,9.66
2022-11-16T19:12:34.459Z,9.65
2022-11-16T19:15:00.808Z,9.64
2022-11-16T19:17:27.029Z,9.64
2022-11-16T19:19:53.196Z,9.56
2022-11-16T19:22:19.347Z,9.65
2022-11-16T19:24:45.470Z,9.62
2022-11-16T19:27:11.569Z,9.63
2022-11-16T19:29:37.668Z,9.54
2022-11-16T19:32:03.772Z,9.54
2022-11-16T19:34:33.340Z,9.45
2022-11-16T19:36:59.743Z,9.52
2022-11-16T19:39:25.856Z,9.58
2022-11-16T19:41:51.945Z,9.62
2022-11-16T19:44:18.045Z,9.56
2022-11-16T19:46:44.157Z,9.61
2022-11-16T19:49:10.237Z,9.59
2022-11-16T19:51:36.319Z,9.57
2022-11-16T19:54:02.875Z,9.62
2022-11-16T19:56:29.006Z,9.54
2022-11-16T19:58:55.109Z,9.54
2022-11-16T20:01:21.233Z,9.53
2022-11-16T20:03:47.363Z,9.54
2022-11-16T20:06:13.457Z,9.58
2022-11-16T20:08:39.572Z,9.55
2022-11-16T20:11:05.665Z,9.55
2022-11-16T20:13:31.972Z,9.60
2022-11-16T20:15:58.288Z,9.55
2022-11-16T20:18:24.377Z,9.55
2022-11-16T20:20:50.462Z,9.56
2022-11-16T20:23:16.595Z,9.53
2022-11-16T20:25:42.694Z,9.53
2022-11-16T20:28:08.797Z,9.52
2022-11-16T20:30:34.913Z,9.54
2022-11-16T20:33:01.008Z,9.53
2022-11-16T20:35:27.111Z,9.50
2022-11-16T20:37:53.223Z,9.45
2022-11-16T20:40:19.475Z,9.52
2022-11-16T20:42:45.628Z,9.55
2022-11-16T20:45:11.744Z,9.54
2022-11-16T20:47:37.848Z,9.52
2022-11-16T20:50:03.949Z,9.48
2022-11-16T20:52:30.080Z,9.49
2022-11-16T20:54:56.171Z,9.49
2022-11-16T20:57:22.270Z,9.50
2022-11-16T20:59:48.862Z,9.54
2022-11-16T21:02:14.957Z,9.50
2022-11-16T21:04:41.071Z,9.50
2022-11-16T21:07:07.235Z,9.52
2022-11-16T21:09:33.357Z,9.58
2022-11-16T21:11:59.474Z,9.54
2022-11-16T21:14:25.592Z,9.59
2022-11-16T21:16:51.687Z,9.62
2022-11-16T21:19:17.785Z,9.63
2022-11-16T21:21:43.899Z,9.69
2022-11-16T21:24:09.998Z,9.71
2022-11-16T21:26:36.117Z,9.74
2022-11-16T21:29:02.234Z,9.76
2022-11-16T21:31:28.341Z,9.78
2022-11-16T21:33:54.427Z,9.81
2022-11-16T21:36:20.557Z,9.85
2022-11-16T21:38:46.646Z,9.84
2022-11-16T21:41:12.739Z,9.85
2022-11-16T21:43:38.866Z,9.85
2022-11-16T21:46:04.969Z,9.78
2022-11-16T21:48:31.071Z,9.81
2022-11-16T21:50:57.188Z,9.82
2022-11-16T21:53:23.292Z,9.85
2022-11-16T21:55:49.401Z,9.84
2022-11-16T21:58:15.712Z,9.87
2022-11-16T22:00:41.823Z,9.87
2022-11-16T22:03:07.936Z,9.91
2022-11-16T22:05:34.037Z,9.93
2022-11-16T22:08:00.129Z,9.94
2022-11-16T22:10:26.222Z,9.92
2022-11-16T22:12:52.426Z,9.95
2022-11-16T22:15:18.545Z,9.95
2022-11-16T22:17:44.656Z,9.97
2022-11-16T22:20:10.768Z,10.01
2022-11-16T22:22:36.848Z,9.99
2022-11-16T22:25:03.127Z,10.00
2022-11-16T22:27:29.465Z,9.98
2022-11-16T22:29:55.556Z,10.00
2022-11-16T22:32:21.649Z,10.07
2022-11-16T22:34:47.751Z,10.04
2022-11-16T22:37:13.840Z,10.07
2022-11-16T22:39:39.926Z,10.14
2022-11-16T22:42:06.060Z,10.14
2022-11-16T22:44:32.161Z,10.11
2022-11-16T22:46:58.255Z,10.14
2022-11-16T22:49:24.372Z,10.10
2022-11-16T22:51:50.468Z,10.10
2022-11-16T22:54:16.575Z,10.11
2022-11-16T22:56:42.687Z,10.13
2022-11-16T22:59:08.786Z,10.13
2022-11-16T23:01:34.879Z,10.14
2022-11-16T23:04:01.281Z,10.14
2022-11-16T23:06:27.367Z,10.16
2022-11-16T23:08:53.443Z,10.20
2022-11-16T23:11:19.547Z,10.20
2022-11-16T23:13:45.640Z,10.20
2022-11-16T23:16:11.740Z,10.23
2022-11-16T23:18:37.852Z,10.23
2022-11-16T23:21:03.950Z,10.22
2022-11-16T23:23:30.064Z,10.28
2022-11-16T23:25:56.170Z,10.27
2022-11-16T23:28:22.252Z,10.25
2022-11-16T23:30:48.345Z,10.33
2022-11-16T23:33:14.458Z,10.29
2022-11-16T23:35:40.562Z,10.37
2022-11-16T23:38:06.658Z,10.41
2022-11-16T23:40:32.769Z,10.44
2022-11-16T23:42:58.873Z,10.43
2022-11-16T23:45:24.965Z,10.48
2022-11-16T23:50:34.837Z,10.45
2022-11-16T23:53:00.963Z,10.53
2022-11-16T23:55:27.069Z,10.50
2022-11-16T23:57:53.152Z,10.52
